Time;durP1;ratioP1;P1;durP2;ratioP2;P2;SDS_P1;SDS_P2;PMS_P1;PMS_P2;Temp;Humidity;BMP_temperature;BMP_pressure;BME280_temperature;BME280_humidity;BME280_pressure;Samples;Min_cycle;Max_cycle;Signal;HPM_P1;HPM_P2
2021/08/25 00:00:22;;;;;;;12.07;5.10;;;;;;;-145.01;100.00;64805.59;4996875;28;20485;-63
2021/08/25 00:02:48;;;;;;;16.13;5.93;;;;;;;-145.01;100.00;64805.59;4997018;28;20026;-63
2021/08/25 00:05:13;;;;;;;13.20;5.45;;;;;;;-145.01;100.00;64805.59;4996410;28;20101;-63
2021/08/25 00:07:39;;;;;;;15.73;5.80;;;;;;;-145.01;100.00;64805.59;4996812;28;20034;-63
2021/08/25 00:10:04;;;;;;;15.75;5.72;;;;;;;-145.01;100.00;64805.59;4996166;28;20050;-63
2021/08/25 00:12:31;;;;;;;11.23;5.97;;;;;;;-145.01;100.00;64805.59;4997029;28;20056;-63
2021/08/25 00:14:56;;;;;;;15.10;5.97;;;;;;;-145.01;100.00;64805.59;4996790;28;20469;-63
2021/08/25 00:17:22;;;;;;;13.98;6.10;;;;;;;-145.01;100.00;64805.59;4996311;28;20046;-63
2021/08/25 00:19:47;;;;;;;11.60;5.90;;;;;;;-145.01;100.00;64805.59;4996623;28;20026;-63
2021/08/25 00:22:13;;;;;;;15.65;5.65;;;;;;;-145.01;100.00;64805.59;4996491;28;20038;-63
2021/08/25 00:24:39;;;;;;;12.48;5.93;;;;;;;-145.01;100.00;64805.59;4996576;28;20027;-63
2021/08/25 00:27:05;;;;;;;10.27;5.47;;;;;;;-145.01;100.00;64805.59;4996112;28;20041;-63
2021/08/25 00:29:30;;;;;;;18.88;6.13;;;;;;;-145.01;100.00;64805.59;4996522;28;20034;-63
2021/08/25 00:31:55;;;;;;;16.13;6.75;;;;;;;-145.01;100.00;64805.59;4995985;28;20045;-63
2021/08/25 00:34:21;;;;;;;11.13;5.85;;;;;;;-145.01;100.00;64805.59;4996353;28;20015;-63
2021/08/25 00:36:46;;;;;;;11.60;5.88;;;;;;;-145.01;100.00;64805.59;4995812;28;20046;-63
2021/08/25 00:39:12;;;;;;;13.10;6.05;;;;;;;-145.01;100.00;64805.59;4996663;28;20168;-63
2021/08/25 00:41:37;;;;;;;17.20;6.40;;;;;;;-145.01;100.00;64805.59;4995908;28;20092;-63
2021/08/25 00:44:03;;;;;;;12.68;5.80;;;;;;;-145.01;100.00;64805.59;4996342;28;20030;-63
2021/08/25 00:46:29;;;;;;;17.65;6.47;;;;;;;-145.01;100.00;64805.59;4995846;28;20140;-63
2021/08/25 00:48:54;;;;;;;15.52;6.78;;;;;;;-145.01;100.00;64805.59;4996098;28;20034;-63
2021/08/25 00:51:22;;;;;;;13.15;5.75;;;;;;;-145.01;100.00;64805.59;4995649;28;20037;-63
2021/08/25 00:53:47;;;;;;;15.25;6.32;;;;;;;-145.01;100.00;64805.59;4995990;28;20018;-63
2021/08/25 00:56:13;;;;;;;10.63;5.90;;;;;;;-145.01;100.00;64805.59;4995668;28;20045;-63
2021/08/25 00:58:39;;;;;;;15.40;6.35;;;;;;;-145.01;100.00;64805.59;4995823;28;20221;-63
2021/08/25 01:01:08;;;;;;;13.55;6.03;;;;;;;-145.01;100.00;64805.59;4992903;28;20048;-63
2021/08/25 01:03:54;;;;;;;15.27;5.88;;;;;;;-145.01;100.00;64805.59;4994533;28;20026;-63
2021/08/25 01:06:24;;;;;;;11.73;5.43;;;;;;;-145.01;100.00;64805.59;4993646;28;20049;-63
2021/08/25 01:08:50;;;;;;;13.70;5.80;;;;;;;-145.01;100.00;64805.59;4995465;28;20096;-63
2021/08/25 01:11:16;;;;;;;16.92;6.20;;;;;;;-145.01;100.00;64805.59;4995443;28;20058;-63
2021/08/25 01:13:41;;;;;;;14.65;5.53;;;;;;;-145.01;100.00;64805.59;4995683;28;20045;-63
2021/08/25 01:16:07;;;;;;;14.23;6.25;;;;;;;-145.01;100.00;64805.59;4995245;28;20031;-63
2021/08/25 01:18:33;;;;;;;11.88;6.20;;;;;;;-145.01;100.00;64805.59;4995539;28;20030;-63
2021/08/25 01:20:59;;;;;;;17.27;6.13;;;;;;;-145.01;100.00;64805.59;4995133;28;20421;-63
2021/08/25 01:23:25;;;;;;;17.48;6.00;;;;;;;-145.01;100.00;64805.59;5026889;28;20026;-63
2021/08/25 01:25:53;;;;;;;14.63;6.57;;;;;;;-145.01;100.00;64805.59;4994940;28;20030;-63
2021/08/25 01:28:18;;;;;;;15.77;7.22;;;;;;;-145.01;100.00;64805.59;5010796;28;20034;-63
2021/08/25 01:30:44;;;;;;;13.35;7.07;;;;;;;-145.01;100.00;64805.59;4993536;28;20030;-63
2021/08/25 01:33:20;;;;;;;15.27;7.07;;;;;;;-145.01;100.00;64805.59;5010408;28;20034;-63
2021/08/25 01:35:45;;;;;;;10.48;5.53;;;;;;;-145.01;100.00;64805.59;4994837;28;20030;-63
2021/08/25 01:38:50;;;;;;;12.18;5.90;;;;;;;-145.01;100.00;64805.59;4995241;28;20033;-63
2021/08/25 01:41:22;;;;;;;13.05;6.03;;;;;;;-145.01;100.00;64805.59;4994659;28;20571;-63
2021/08/25 01:43:50;;;;;;;13.77;6.63;;;;;;;-145.01;100.00;64805.59;5026543;28;20108;-63
2021/08/25 01:46:23;;;;;;;14.88;6.10;;;;;;;-145.01;100.00;64805.59;4994811;28;20046;-63
2021/08/25 01:48:48;;;;;;;14.13;6.63;;;;;;;-145.01;100.00;64805.59;4994046;28;20014;-63
2021/08/25 01:51:16;;;;;;;18.52;6.75;;;;;;;-145.01;100.00;64805.59;4994471;28;20091;-63
2021/08/25 01:53:42;;;;;;;15.27;6.55;;;;;;;-145.01;100.00;64805.59;4994981;28;20026;-63
2021/08/25 01:56:07;;;;;;;20.17;7.75;;;;;;;-145.01;100.00;64805.59;4994697;28;20401;-63
2021/08/25 01:58:32;;;;;;;16.45;7.50;;;;;;;-145.01;100.00;64805.59;4995010;28;20457;-63
2021/08/25 02:00:58;;;;;;;16.23;6.85;;;;;;;-145.01;100.00;64805.59;4994384;28;20046;-63
2021/08/25 02:03:23;;;;;;;14.02;6.47;;;;;;;-145.01;100.00;64805.59;4994882;28;20030;-63
2021/08/25 02:05:49;;;;;;;13.25;6.60;;;;;;;-145.01;100.00;64805.59;4994415;28;20501;-63
2021/08/25 02:08:14;;;;;;;14.45;7.07;;;;;;;-145.01;100.00;64805.59;4994610;28;20377;-63
2021/08/25 02:10:41;;;;;;;15.05;6.72;;;;;;;-145.01;100.00;64805.59;4993492;28;20137;-63
2021/08/25 02:13:07;;;;;;;12.98;6.82;;;;;;;-145.01;100.00;64805.59;4993332;28;20022;-63
2021/08/25 02:15:32;;;;;;;14.57;5.78;;;;;;;-145.01;100.00;64805.59;4993291;28;20374;-63
2021/08/25 02:17:57;;;;;;;13.82;6.50;;;;;;;-145.01;100.00;64805.59;4994609;28;20026;-62
2021/08/25 02:20:23;;;;;;;16.13;7.22;;;;;;;-145.01;100.00;64805.59;4994036;28;20030;-63
2021/08/25 02:22:48;;;;;;;15.23;6.38;;;;;;;-145.01;100.00;64805.59;4994358;28;20030;-63
2021/08/25 02:25:14;;;;;;;21.10;7.30;;;;;;;-145.01;100.00;64805.59;4993827;28;20045;-63
2021/08/25 02:27:39;;;;;;;13.40;7.13;;;;;;;-145.01;100.00;64805.59;4993037;28;20026;-63
2021/08/25 02:30:05;;;;;;;13.63;6.82;;;;;;;-145.01;100.00;64805.59;4993834;28;20488;-63
2021/08/25 02:32:30;;;;;;;16.75;7.18;;;;;;;-145.01;100.00;64805.59;4994286;28;20350;-63
2021/08/25 02:34:56;;;;;;;15.40;7.15;;;;;;;-145.01;100.00;64805.59;4992962;28;20037;-63
2021/08/25 02:37:21;;;;;;;18.75;7.38;;;;;;;-145.01;100.00;64805.59;4993835;28;20088;-63
2021/08/25 02:39:47;;;;;;;15.13;6.78;;;;;;;-145.01;100.00;64805.59;4993912;28;20539;-63
2021/08/25 02:42:12;;;;;;;16.15;7.60;;;;;;;-145.01;100.00;64805.59;4993660;28;20046;-63
2021/08/25 02:44:38;;;;;;;15.52;7.25;;;;;;;-145.01;100.00;64805.59;4994192;28;20113;-63
2021/08/25 02:47:03;;;;;;;14.75;6.85;;;;;;;-145.01;100.00;64805.59;4992233;28;20405;-63
2021/08/25 02:49:29;;;;;;;13.70;6.88;;;;;;;-145.01;100.00;64805.59;4993973;28;20038;-63
2021/08/25 02:51:54;;;;;;;13.05;6.32;;;;;;;-145.01;100.00;64805.59;5025025;28;20132;-63
2021/08/25 02:54:20;;;;;;;12.98;6.57;;;;;;;-145.01;100.00;64805.59;4993897;28;20033;-63
2021/08/25 02:56:45;;;;;;;14.65;7.22;;;;;;;-145.01;100.00;64805.59;4993057;28;20058;-63
2021/08/25 02:59:11;;;;;;;17.25;7.65;;;;;;;-145.01;100.00;64805.59;4992508;28;20420;-63
2021/08/25 03:01:36;;;;;;;16.65;6.82;;;;;;;-145.01;100.00;64805.59;4993268;28;20039;-63
2021/08/25 03:04:01;;;;;;;14.73;6.35;;;;;;;-145.01;100.00;64805.59;4993542;28;20018;-63
2021/08/25 03:06:27;;;;;;;15.52;6.82;;;;;;;-145.01;100.00;64805.59;4993157;28;20441;-63
2021/08/25 03:08:52;;;;;;;15.15;6.38;;;;;;;-145.01;100.00;64805.59;4993204;28;20058;-63
2021/08/25 03:11:18;;;;;;;16.05;6.20;;;;;;;-145.01;100.00;64805.59;4993127;28;20038;-63
2021/08/25 03:13:43;;;;;;;12.07;6.45;;;;;;;-145.01;100.00;64805.59;4993495;28;20042;-63
2021/08/25 03:16:09;;;;;;;15.65;7.18;;;;;;;-145.01;100.00;64805.59;4993286;28;20049;-63
2021/08/25 03:18:34;;;;;;;14.02;6.72;;;;;;;-145.01;100.00;64805.59;4993522;28;20027;-63
2021/08/25 03:21:00;;;;;;;13.98;7.30;;;;;;;-145.01;100.00;64805.59;4992110;28;20061;-63
2021/08/25 03:23:25;;;;;;;14.25;5.75;;;;;;;-145.01;100.00;64805.59;4992809;28;20655;-63
2021/08/25 03:25:51;;;;;;;15.27;6.47;;;;;;;-145.01;100.00;64805.59;4993327;28;20045;-63
2021/08/25 03:28:18;;;;;;;15.85;7.40;;;;;;;-145.01;100.00;64805.59;4993526;28;20109;-63
2021/08/25 03:30:43;;;;;;;13.75;7.07;;;;;;;-145.01;100.00;64805.59;4991872;28;20499;-63
2021/08/25 03:33:08;;;;;;;18.73;7.03;;;;;;;-145.01;100.00;64805.59;4993522;28;20038;-63
2021/08/25 03:35:34;;;;;;;16.88;7.68;;;;;;;-145.01;100.00;64805.59;4991736;28;20041;-63
2021/08/25 03:38:00;;;;;;;13.25;6.25;;;;;;;-145.01;100.00;64805.59;4993451;28;20066;-63
2021/08/25 03:40:25;;;;;;;18.90;6.72;;;;;;;-145.01;100.00;64805.59;4993199;28;20054;-63
2021/08/25 03:42:51;;;;;;;12.73;7.22;;;;;;;-145.01;100.00;64805.59;4992137;28;20018;-63
2021/08/25 03:45:16;;;;;;;16.02;6.90;;;;;;;-145.01;100.00;64805.59;4991807;28;20031;-63
2021/08/25 03:47:41;;;;;;;16.77;7.47;;;;;;;-145.01;100.00;64805.59;4992221;28;20501;-63
2021/08/25 03:50:07;;;;;;;15.98;7.00;;;;;;;-145.01;100.00;64805.59;4992893;28;20026;-63
2021/08/25 03:52:33;;;;;;;15.70;6.78;;;;;;;-145.01;100.00;64805.59;4992093;28;20031;-63
2021/08/25 03:54:58;;;;;;;17.67;7.82;;;;;;;-145.01;100.00;64805.59;4993361;28;20034;-63
2021/08/25 03:57:24;;;;;;;13.30;6.70;;;;;;;-145.01;100.00;64805.59;4992806;28;20042;-63
2021/08/25 03:59:49;;;;;;;13.90;7.07;;;;;;;-145.01;100.00;64805.59;4992138;28;20336;-63
2021/08/25 04:02:15;;;;;;;17.10;7.28;;;;;;;-145.01;100.00;64805.59;4992843;28;20405;-63
2021/08/25 04:04:40;;;;;;;16.60;7.63;;;;;;;-145.01;100.00;64805.59;4993217;28;20033;-63
2021/08/25 04:07:05;;;;;;;18.35;7.07;;;;;;;-145.01;100.00;64805.59;4992652;28;20035;-63
2021/08/25 04:09:31;;;;;;;16.13;6.75;;;;;;;-145.01;100.00;64805.59;4993036;28;20042;-63
2021/08/25 04:11:56;;;;;;;19.92;7.63;;;;;;;-145.01;100.00;64805.59;4991334;28;20034;-63
2021/08/25 04:14:22;;;;;;;17.80;7.57;;;;;;;-145.01;100.00;64805.59;4993154;28;20026;-63
2021/08/25 04:16:47;;;;;;;14.50;6.80;;;;;;;-145.01;100.00;64805.59;4992843;28;20042;-63
2021/08/25 04:19:14;;;;;;;13.70;6.57;;;;;;;-145.01;100.00;64805.59;4993296;28;20042;-63
2021/08/25 04:21:40;;;;;;;15.55;7.03;;;;;;;-145.01;100.00;64805.59;4992841;28;20504;-63
2021/08/25 04:24:05;;;;;;;14.98;6.75;;;;;;;-145.01;100.00;64805.59;4991978;28;20023;-63
2021/08/25 04:26:31;;;;;;;18.02;7.70;;;;;;;-145.01;100.00;64805.59;4991443;28;20062;-62
2021/08/25 04:28:56;;;;;;;13.40;6.90;;;;;;;-145.01;100.00;64805.59;4993110;28;20033;-63
2021/08/25 04:31:21;;;;;;;18.02;7.05;;;;;;;-145.01;100.00;64805.59;4991520;28;20057;-63
2021/08/25 04:33:47;;;;;;;13.77;7.03;;;;;;;-145.01;100.00;64805.59;4993309;28;20041;-63
2021/08/25 04:36:12;;;;;;;16.48;6.75;;;;;;;-145.01;100.00;64805.59;4996222;28;20031;-63
2021/08/25 04:38:38;;;;;;;16.30;7.07;;;;;;;-145.01;100.00;64805.59;4996967;28;20030;-62
2021/08/25 04:41:03;;;;;;;17.55;7.93;;;;;;;-145.01;100.00;64805.59;4996233;28;20038;-63
2021/08/25 04:43:32;;;;;;;16.85;8.25;;;;;;;-145.01;100.00;64805.59;4995438;28;20038;-63
2021/08/25 04:45:57;;;;;;;16.60;7.78;;;;;;;-145.01;100.00;64805.59;4996495;28;20034;-63
2021/08/25 04:48:23;;;;;;;15.77;7.25;;;;;;;-145.01;100.00;64805.59;4996694;28;20022;-63
2021/08/25 04:50:48;;;;;;;15.98;6.47;;;;;;;-145.01;100.00;64805.59;4994908;28;20050;-63
2021/08/25 04:53:14;;;;;;;14.30;6.13;;;;;;;-145.01;100.00;64805.59;4996679;28;20354;-63
2021/08/25 04:55:39;;;;;;;22.00;6.65;;;;;;;-145.01;100.00;64805.59;4995992;28;20386;-63
2021/08/25 04:58:05;;;;;;;15.55;6.30;;;;;;;-145.01;100.00;64805.59;4996589;28;20058;-63
2021/08/25 05:00:30;;;;;;;23.75;6.72;;;;;;;-145.01;100.00;64805.59;4995816;28;20057;-63
2021/08/25 05:02:56;;;;;;;17.48;7.00;;;;;;;-145.01;100.00;64805.59;4995832;28;20052;-63
2021/08/25 05:05:21;;;;;;;13.23;5.78;;;;;;;-145.01;100.00;64805.59;4995880;28;20046;-63
2021/08/25 05:07:46;;;;;;;13.68;5.78;;;;;;;-145.01;100.00;64805.59;4994858;28;20022;-64
2021/08/25 05:10:12;;;;;;;16.67;6.05;;;;;;;-145.01;100.00;64805.59;4995412;28;20059;-64
2021/08/25 05:12:37;;;;;;;12.00;5.88;;;;;;;-145.01;100.00;64805.59;4996102;28;20378;-64
2021/08/25 05:15:05;;;;;;;20.52;6.13;;;;;;;-145.01;100.00;64805.59;4995622;28;20034;-64
2021/08/25 05:17:30;;;;;;;13.85;5.20;;;;;;;-145.01;100.00;64805.59;4995747;28;20469;-63
2021/08/25 05:19:59;;;;;;;20.35;5.88;;;;;;;-145.01;100.00;64805.59;4995772;28;20037;-63
2021/08/25 05:22:25;;;;;;;11.95;5.93;;;;;;;-145.01;100.00;64805.59;4995214;28;20112;-63
2021/08/25 05:24:50;;;;;;;17.27;7.38;;;;;;;-145.01;100.00;64805.59;4995726;28;20022;-63
2021/08/25 05:27:15;;;;;;;16.35;5.65;;;;;;;-145.01;100.00;64805.59;4995190;28;20042;-64
2021/08/25 05:29:41;;;;;;;15.02;6.22;;;;;;;-145.01;100.00;64805.59;4995543;28;20031;-64
2021/08/25 05:32:06;;;;;;;13.82;6.07;;;;;;;-145.01;100.00;64805.59;4995248;28;20061;-64
2021/08/25 05:34:32;;;;;;;15.27;6.22;;;;;;;-145.01;100.00;64805.59;4994274;28;20432;-64
2021/08/25 05:36:57;;;;;;;12.50;6.40;;;;;;;-145.01;100.00;64805.59;4994804;28;20552;-64
2021/08/25 05:39:23;;;;;;;11.57;5.88;;;;;;;-145.01;100.00;64805.59;4995382;28;20469;-64
2021/08/25 05:41:48;;;;;;;14.60;5.85;;;;;;;-145.01;100.00;64805.59;4993714;28;20061;-64
2021/08/25 05:44:13;;;;;;;12.88;6.05;;;;;;;-145.01;100.00;64805.59;4995244;28;20063;-64
2021/08/25 05:46:39;;;;;;;13.45;5.22;;;;;;;-145.01;100.00;64805.59;4993914;28;20034;-64
2021/08/25 05:49:04;;;;;;;13.63;5.70;;;;;;;-145.01;100.00;64805.59;4995174;28;20026;-64
2021/08/25 05:51:30;;;;;;;11.25;5.55;;;;;;;-145.01;100.00;64805.59;4977425;28;20046;-64
2021/08/25 05:53:55;;;;;;;14.40;6.07;;;;;;;-145.01;100.00;64805.59;4994016;28;20089;-64
2021/08/25 05:56:20;;;;;;;10.35;5.70;;;;;;;-145.01;100.00;64805.59;4994688;28;20039;-64
2021/08/25 05:58:46;;;;;;;11.88;5.43;;;;;;;-145.01;100.00;64805.59;4995183;28;20126;-64
2021/08/25 06:01:13;;;;;;;12.38;5.60;;;;;;;-145.01;100.00;64805.59;4994539;28;20484;-64
2021/08/25 06:03:38;;;;;;;13.00;5.35;;;;;;;-145.01;100.00;64805.59;4993951;28;20023;-64
2021/08/25 06:06:04;;;;;;;13.02;5.38;;;;;;;-145.01;100.00;64805.59;4994581;28;20042;-64
2021/08/25 06:08:29;;;;;;;13.98;5.32;;;;;;;-145.01;100.00;64805.59;4994932;28;20042;-64
2021/08/25 06:10:54;;;;;;;15.82;5.00;;;;;;;-145.01;100.00;64805.59;4994523;28;20038;-64
2021/08/25 06:13:20;;;;;;;13.82;5.10;;;;;;;-145.01;100.00;64805.59;4993653;28;20396;-64
2021/08/25 06:15:45;;;;;;;10.95;5.40;;;;;;;-145.01;100.00;64805.59;4994411;28;20396;-64
2021/08/25 06:18:11;;;;;;;15.50;5.40;;;;;;;-145.01;100.00;64805.59;4994767;28;20033;-64
2021/08/25 06:20:36;;;;;;;11.32;5.30;;;;;;;-145.01;100.00;64805.59;4994357;28;20089;-64
2021/08/25 06:23:02;;;;;;;10.27;5.22;;;;;;;-145.01;100.00;64805.59;4994650;28;20035;-64
2021/08/25 06:25:27;;;;;;;11.98;5.50;;;;;;;-145.01;100.00;64805.59;4976809;28;20039;-64
2021/08/25 06:27:53;;;;;;;13.85;4.68;;;;;;;-145.01;100.00;64805.59;4993504;28;20026;-63
2021/08/25 06:30:18;;;;;;;8.65;4.72;;;;;;;-145.01;100.00;64805.59;4993984;28;20424;-63
2021/08/25 06:32:44;;;;;;;8.13;4.55;;;;;;;-145.01;100.00;64805.59;4994433;28;20029;-63
2021/08/25 06:35:09;;;;;;;9.52;5.22;;;;;;;-145.01;100.00;64805.59;4993941;28;20038;-65
2021/08/25 06:37:34;;;;;;;11.20;4.90;;;;;;;-145.01;100.00;64805.59;4993510;28;20137;-63
2021/08/25 06:40:00;;;;;;;10.55;5.35;;;;;;;-145.01;100.00;64805.59;4994522;28;20026;-63
2021/08/25 06:42:25;;;;;;;14.63;5.35;;;;;;;-145.01;100.00;64805.59;4994267;28;20038;-64
2021/08/25 06:44:51;;;;;;;12.38;5.38;;;;;;;-145.01;100.00;64805.59;4994279;28;20076;-63
2021/08/25 06:47:16;;;;;;;11.48;5.45;;;;;;;-145.01;100.00;64805.59;4993709;28;20038;-63
2021/08/25 06:49:42;;;;;;;20.55;6.05;;;;;;;-145.01;100.00;64805.59;4994315;28;20033;-63
2021/08/25 06:52:07;;;;;;;21.60;5.95;;;;;;;-145.01;100.00;64805.59;4993656;28;20045;-64
2021/08/25 06:54:33;;;;;;;15.38;5.60;;;;;;;-145.01;100.00;64805.59;4994120;28;20034;-63
2021/08/25 06:56:59;;;;;;;29.77;6.25;;;;;;;-145.01;100.00;64805.59;4993695;28;20035;-64
2021/08/25 06:59:24;;;;;;;22.77;6.47;;;;;;;-145.01;100.00;64805.59;4992296;28;20101;-64
2021/08/25 07:01:50;;;;;;;25.35;6.20;;;;;;;-145.01;100.00;64805.59;4993607;28;20038;-63
2021/08/25 07:04:18;;;;;;;18.98;5.97;;;;;;;-145.01;100.00;64805.59;4993891;28;20038;-63
2021/08/25 07:06:43;;;;;;;24.33;6.82;;;;;;;-145.01;100.00;64805.59;4992228;28;20065;-64
2021/08/25 07:09:09;;;;;;;22.60;6.47;;;;;;;-145.01;100.00;64805.59;4993591;28;20046;-63
2021/08/25 07:11:35;;;;;;;33.47;6.40;;;;;;;-145.01;100.00;64805.59;4993490;28;20085;-63
2021/08/25 07:14:01;;;;;;;36.95;7.03;;;;;;;-145.01;100.00;64805.59;4993966;28;20084;-64
2021/08/25 07:16:26;;;;;;;27.77;7.07;;;;;;;-145.01;100.00;64805.59;4993486;28;20169;-63
2021/08/25 07:18:52;;;;;;;22.95;6.85;;;;;;;-145.01;100.00;64805.59;4993628;28;20023;-64
2021/08/25 07:21:17;;;;;;;27.25;6.90;;;;;;;-145.01;100.00;64805.59;4993586;28;20038;-64
2021/08/25 07:23:48;;;;;;;18.85;6.85;;;;;;;-145.01;100.00;64805.59;4994267;28;20033;-64
2021/08/25 07:26:13;;;;;;;30.05;6.80;;;;;;;-145.01;100.00;64805.59;4992328;28;20493;-64
2021/08/25 07:28:43;;;;;;;23.27;7.60;;;;;;;-145.01;100.00;64805.59;4993741;28;20030;-64
2021/08/25 07:31:09;;;;;;;29.45;7.18;;;;;;;-145.01;100.00;64805.59;4992949;28;20035;-63
2021/08/25 07:33:34;;;;;;;23.17;6.78;;;;;;;-145.01;100.00;64805.59;4993711;28;20045;-64
2021/08/25 07:36:00;;;;;;;32.10;7.03;;;;;;;-145.01;100.00;64805.59;4993276;28;20401;-64
2021/08/25 07:38:25;;;;;;;35.53;7.68;;;;;;;-145.01;100.00;64805.59;4993638;28;20029;-64
2021/08/25 07:40:50;;;;;;;33.65;7.70;;;;;;;-145.01;100.00;64805.59;4993139;28;20116;-64
2021/08/25 07:43:16;;;;;;;45.03;8.27;;;;;;;-145.01;100.00;64805.59;4992142;28;20543;-64
2021/08/25 07:45:41;;;;;;;47.45;8.10;;;;;;;-145.01;100.00;64805.59;4993031;28;20481;-64
2021/08/25 07:48:07;;;;;;;46.80;7.07;;;;;;;-145.01;100.00;64805.59;4993411;28;20045;-64
2021/08/25 07:50:32;;;;;;;40.80;8.13;;;;;;;-145.01;100.00;64805.59;4992770;28;20041;-64
2021/08/25 07:52:58;;;;;;;45.85;7.88;;;;;;;-145.01;100.00;64805.59;4993347;28;20034;-64
2021/08/25 07:55:23;;;;;;;34.55;6.55;;;;;;;-145.01;100.00;64805.59;4993071;28;20092;-64
2021/08/25 07:57:49;;;;;;;31.48;7.00;;;;;;;-145.01;100.00;64805.59;4993309;28;20492;-64
2021/08/25 08:00:14;;;;;;;35.78;6.00;;;;;;;-145.01;100.00;64805.59;4993005;28;20030;-64
2021/08/25 08:02:40;;;;;;;18.88;5.45;;;;;;;-145.01;100.00;64805.59;4991992;28;20076;-64
2021/08/25 08:05:06;;;;;;;20.05;4.72;;;;;;;-145.01;100.00;64805.59;4992901;28;20029;-64
2021/08/25 08:07:31;;;;;;;20.30;5.05;;;;;;;-145.01;100.00;64805.59;4993549;28;20030;-64
2021/08/25 08:09:56;;;;;;;17.67;5.65;;;;;;;-145.01;100.00;64805.59;4993855;28;20065;-64
2021/08/25 08:12:22;;;;;;;24.60;5.38;;;;;;;-145.01;100.00;64805.59;4996894;28;20034;-64
2021/08/25 08:14:47;;;;;;;20.58;5.15;;;;;;;-145.01;100.00;64805.59;4997125;28;20022;-64
2021/08/25 08:17:15;;;;;;;22.38;6.05;;;;;;;-145.01;100.00;64805.59;4996414;28;20053;-64
2021/08/25 08:19:41;;;;;;;17.10;5.90;;;;;;;-145.01;100.00;64805.59;4997009;28;20030;-64
2021/08/25 08:22:06;;;;;;;20.75;5.50;;;;;;;-145.01;100.00;64805.59;4996494;28;20045;-64
2021/08/25 08:24:32;;;;;;;25.38;5.40;;;;;;;-145.01;100.00;64805.59;4996725;28;20025;-64
2021/08/25 08:26:58;;;;;;;12.43;5.05;;;;;;;-145.01;100.00;64805.59;4996287;28;20397;-64
2021/08/25 08:29:24;;;;;;;17.88;4.60;;;;;;;-145.01;100.00;64805.59;4995310;28;20057;-64
2021/08/25 08:31:49;;;;;;;14.45;4.95;;;;;;;-145.01;100.00;64805.59;4978752;28;20121;-64
2021/08/25 08:34:15;;;;;;;13.98;4.65;;;;;;;-145.01;100.00;64805.59;4979191;28;20015;-64
2021/08/25 08:36:40;;;;;;;11.50;4.43;;;;;;;-145.01;100.00;64805.59;4996067;28;20038;-64
2021/08/25 08:39:05;;;;;;;19.25;5.00;;;;;;;-145.01;100.00;64805.59;4996523;28;20026;-64
2021/08/25 08:41:31;;;;;;;15.00;5.15;;;;;;;-145.01;100.00;64805.59;4996153;28;20436;-64
2021/08/25 08:43:57;;;;;;;20.58;6.20;;;;;;;-145.01;100.00;64805.59;4996495;28;20034;-64
2021/08/25 08:46:23;;;;;;;12.63;4.60;;;;;;;-145.01;100.00;64805.59;4996010;28;20064;-64
2021/08/25 08:48:49;;;;;;;14.57;5.15;;;;;;;-145.01;100.00;64805.59;4994989;28;20022;-63
2021/08/25 08:51:19;;;;;;;21.52;6.20;;;;;;;-145.01;100.00;64805.59;4995836;28;20061;-63
2021/08/25 08:53:45;;;;;;;18.83;5.13;;;;;;;-145.01;100.00;64805.59;4994977;28;20469;-64
2021/08/25 08:56:11;;;;;;;12.07;4.50;;;;;;;-145.01;100.00;64805.59;4994517;28;20053;-63
2021/08/25 08:58:40;;;;;;;13.18;4.85;;;;;;;-145.01;100.00;64805.59;4995863;28;20014;-63
2021/08/25 09:01:05;;;;;;;15.57;4.87;;;;;;;-145.01;100.00;64805.59;4995907;28;20039;-63
2021/08/25 09:03:34;;;;;;;10.98;4.38;;;;;;;-145.01;100.00;64805.59;4996302;28;20287;-63
2021/08/25 09:06:00;;;;;;;18.30;5.28;;;;;;;-145.01;100.00;64805.59;4994486;28;20042;-63
2021/08/25 09:08:35;;;;;;;17.67;5.40;;;;;;;-145.01;100.00;64805.59;4996417;28;20113;-64
2021/08/25 09:11:16;;;;;;;21.13;4.60;;;;;;;-145.01;100.00;64805.59;4995663;28;20493;-63
2021/08/25 09:13:49;;;;;;;22.70;4.78;;;;;;;-145.01;100.00;64805.59;4996158;28;20377;-63
2021/08/25 09:16:44;;;;;;;15.98;4.70;;;;;;;-145.01;100.00;64805.59;4995682;28;20038;-66
2021/08/25 09:19:11;;;;;;;23.13;5.38;;;;;;;-145.01;100.00;64805.59;4986380;28;20038;-64
2021/08/25 09:21:54;;;;;;;17.85;4.93;;;;;;;-145.01;100.00;64805.59;4994299;28;20077;-63
2021/08/25 09:24:25;;;;;;;15.73;4.65;;;;;;;-145.01;100.00;64805.59;4995654;28;20109;-63
2021/08/25 09:27:10;;;;;;;27.48;5.82;;;;;;;-145.01;100.00;64805.59;4994091;28;20034;-63
2021/08/25 09:29:37;;;;;;;23.77;5.63;;;;;;;-145.01;100.00;64805.59;4995616;28;20488;-63
2021/08/25 09:32:03;;;;;;;14.48;4.78;;;;;;;-145.01;100.00;64805.59;4977819;28;20046;-64
2021/08/25 09:34:33;;;;;;;25.48;5.45;;;;;;;-145.01;100.00;64805.59;4995760;28;20030;-64
2021/08/25 09:37:11;;;;;;;17.33;5.10;;;;;;;-145.01;100.00;64805.59;4995119;28;20038;-64
2021/08/25 09:39:50;;;;;;;14.65;4.53;;;;;;;-145.01;100.00;64805.59;4994343;28;20062;-63
2021/08/25 09:42:17;;;;;;;13.40;4.97;;;;;;;-145.01;100.00;64805.59;4993883;28;20114;-63
2021/08/25 09:44:43;;;;;;;15.38;4.78;;;;;;;-145.01;100.00;64805.59;4994039;28;20030;-63
2021/08/25 09:47:09;;;;;;;14.88;5.05;;;;;;;-145.01;100.00;64805.59;4993619;28;20038;-64
2021/08/25 09:49:34;;;;;;;13.60;4.93;;;;;;;-145.01;100.00;64805.59;4993997;28;20454;-64
2021/08/25 09:52:00;;;;;;;14.80;4.93;;;;;;;-145.01;100.00;64805.59;4994693;28;20476;-63
2021/08/25 09:54:25;;;;;;;16.02;5.32;;;;;;;-145.01;100.00;64805.59;4995229;28;20018;-65
2021/08/25 09:56:52;;;;;;;22.35;5.20;;;;;;;-145.01;100.00;64805.59;4994582;28;20041;-64
2021/08/25 09:59:18;;;;;;;13.18;4.82;;;;;;;-145.01;100.00;64805.59;4995052;28;20511;-63
2021/08/25 10:01:44;;;;;;;10.30;4.80;;;;;;;-145.01;100.00;64805.59;4994571;28;20034;-65
2021/08/25 10:04:11;;;;;;;10.60;4.90;;;;;;;-145.01;100.00;64805.59;4993765;28;20034;-64
2021/08/25 10:06:38;;;;;;;8.20;4.32;;;;;;;-145.01;100.00;64805.59;4993331;28;20180;-63
2021/08/25 10:09:05;;;;;;;10.05;4.43;;;;;;;-145.01;100.00;64805.59;4994591;28;20042;-63
2021/08/25 10:11:31;;;;;;;7.97;4.60;;;;;;;-145.01;100.00;64805.59;4993034;28;20046;-63
2021/08/25 10:13:57;;;;;;;7.45;4.32;;;;;;;-145.01;100.00;64805.59;4994968;28;20029;-63
2021/08/25 10:16:38;;;;;;;12.00;4.93;;;;;;;-145.01;100.00;64805.59;4994411;28;20481;-63
2021/08/25 10:19:26;;;;;;;11.52;4.75;;;;;;;-145.01;100.00;64805.59;4977613;28;20118;-64
2021/08/25 10:21:56;;;;;;;9.93;4.38;;;;;;;-145.01;100.00;64805.59;4994273;28;20038;-63
2021/08/25 10:24:21;;;;;;;13.98;4.43;;;;;;;-145.01;100.00;64805.59;4994791;28;20022;-64
2021/08/25 10:26:59;;;;;;;7.90;4.10;;;;;;;-145.01;100.00;64805.59;4994203;28;20539;-64
2021/08/25 10:29:27;;;;;;;20.33;4.75;;;;;;;-145.01;100.00;64805.59;4994367;28;20026;-64
2021/08/25 10:31:52;;;;;;;15.73;5.18;;;;;;;-145.01;100.00;64805.59;4992408;28;20130;-63
2021/08/25 10:34:40;;;;;;;12.15;4.57;;;;;;;-145.01;100.00;64805.59;4994446;28;20113;-63
2021/08/25 10:37:12;;;;;;;10.48;4.80;;;;;;;-145.01;100.00;64805.59;4992807;28;20056;-64
2021/08/25 10:39:38;;;;;;;8.40;4.30;;;;;;;-145.01;100.00;64805.59;4994423;28;20081;-64
2021/08/25 10:42:04;;;;;;;11.68;4.57;;;;;;;-145.01;100.00;64805.59;4992300;28;20073;-64
2021/08/25 10:44:39;;;;;;;14.18;4.60;;;;;;;-145.01;100.00;64805.59;4994393;28;20054;-64
2021/08/25 10:47:05;;;;;;;9.55;4.30;;;;;;;-145.01;100.00;64805.59;4993784;28;20039;-64
2021/08/25 10:49:32;;;;;;;7.97;4.75;;;;;;;-145.01;100.00;64805.59;4994231;28;20400;-64
2021/08/25 10:52:06;;;;;;;8.48;4.57;;;;;;;-145.01;100.00;64805.59;4993149;28;20031;-64
2021/08/25 10:54:33;;;;;;;8.93;4.35;;;;;;;-145.01;100.00;64805.59;4994101;28;20035;-64
2021/08/25 10:57:09;;;;;;;9.52;4.40;;;;;;;-145.01;100.00;64805.59;4992375;28;20043;-64
2021/08/25 10:59:34;;;;;;;12.70;4.40;;;;;;;-145.01;100.00;64805.59;4994057;28;20030;-64